createdAt,value
2016-08-01T00:00:15.774Z,0
2016-08-01T00:01:14.337Z,0
2016-08-01T00:02:14.316Z,0
2016-08-01T00:03:14.989Z,0
2016-08-01T00:04:15.638Z,0
2016-08-01T00:05:14.231Z,0
2016-08-01T00:06:15.579Z,0
2016-08-01T00:07:14.848Z,0
2016-08-01T00:08:15.516Z,0
2016-08-01T00:09:15.486Z,0
2016-08-01T00:10:15.463Z,0
2016-08-01T00:11:14.030Z,0
2016-08-01T00:12:15.393Z,0
2016-08-01T00:13:14.663Z,0
2016-08-01T00:14:14.641Z,0
2016-08-01T00:15:14.598Z,0
2016-08-01T00:16:15.261Z,0
2016-08-01T00:17:15.237Z,0
2016-08-01T00:18:13.808Z,0
2016-08-01T00:19:14.474Z,0
2016-08-01T00:20:15.146Z,0
2016-08-01T00:21:14.409Z,0
2016-08-01T00:22:13.681Z,0
2016-08-01T00:23:12.960Z,0
2016-08-01T00:24:14.319Z,0
2016-08-01T00:25:14.980Z,0
2016-08-01T00:26:14.257Z,0
2016-08-01T00:27:14.920Z,0
2016-08-01T00:28:14.203Z,0
2016-08-01T00:29:14.170Z,0
2016-08-01T00:30:14.825Z,0
2016-08-01T00:31:13.407Z,0
2016-08-01T00:32:14.077Z,0
2016-08-01T00:33:14.028Z,0
2016-08-01T00:34:14.701Z,0
2016-08-01T00:35:13.977Z,0
2016-08-01T00:36:13.950Z,0
2016-08-01T00:37:13.212Z,0
2016-08-01T00:38:13.900Z,0
2016-08-01T00:39:13.854Z,0
2016-08-01T00:40:14.520Z,0
2016-08-01T00:41:13.087Z,0
2016-08-01T00:42:14.449Z,0
2016-08-01T00:43:13.716Z,0
2016-08-01T00:44:14.390Z,0
2016-08-01T00:45:13.667Z,0
2016-08-01T00:46:14.321Z,0
2016-08-01T00:47:14.294Z,0
2016-08-01T00:48:14.264Z,0
2016-08-01T00:49:13.538Z,0
2016-08-01T00:50:12.806Z,0
2016-08-01T00:51:13.466Z,0
2016-08-01T00:52:13.440Z,0
2016-08-01T00:53:13.404Z,0
2016-08-01T00:54:12.674Z,0
2016-08-01T00:55:14.056Z,0
2016-08-01T00:56:14.017Z,0
2016-08-01T00:57:13.277Z,0
2016-08-01T00:58:13.255Z,0
2016-08-01T00:59:13.226Z,0
2016-08-01T01:00:13.189Z,0
2016-08-01T01:01:13.856Z,0
2016-08-01T01:02:13.821Z,0
2016-08-01T01:03:13.087Z,0
2016-08-01T01:04:13.072Z,0
2016-08-01T01:05:13.027Z,0
2016-08-01T01:06:12.990Z,0
2016-08-01T01:07:12.276Z,0
2016-08-01T01:08:11.553Z,0
2016-08-01T01:09:12.905Z,0
2016-08-01T01:10:12.873Z,0
2016-08-01T01:11:13.535Z,0
2016-08-01T01:12:13.508Z,0
2016-08-01T01:13:12.779Z,0
2016-08-01T01:14:13.441Z,0
2016-08-01T01:15:12.717Z,0
2016-08-01T01:16:12.680Z,0
2016-08-01T01:17:11.963Z,0
2016-08-01T01:18:13.320Z,0
2016-08-01T01:19:12.596Z,0
2016-08-01T01:20:11.857Z,0
2016-08-01T01:21:12.527Z,0
2016-08-01T01:22:12.498Z,0
2016-08-01T01:23:13.165Z,0
2016-08-01T01:24:11.740Z,0
2016-08-01T01:25:13.088Z,0
2016-08-01T01:26:12.363Z,0
2016-08-01T01:27:12.328Z,0
2016-08-01T01:28:12.306Z,0
2016-08-01T01:29:12.280Z,0
2016-08-01T01:30:12.938Z,0
2016-08-01T01:31:11.544Z,0
2016-08-01T01:32:12.173Z,0
2016-08-01T01:33:12.854Z,0
2016-08-01T01:34:10.725Z,0
2016-08-01T01:35:12.079Z,0
2016-08-01T01:36:12.048Z,0
2016-08-01T01:37:12.013Z,0
2016-08-01T01:38:12.682Z,0
2016-08-01T01:39:12.654Z,0
2016-08-01T01:40:11.222Z,0
2016-08-01T01:41:12.587Z,0
2016-08-01T01:42:11.858Z,0
2016-08-01T01:43:11.821Z,0
2016-08-01T01:44:12.496Z,0
2016-08-01T01:45:12.460Z,0
2016-08-01T01:46:11.730Z,0
2016-08-01T01:47:12.405Z,0
2016-08-01T01:48:12.371Z,0
2016-08-01T01:49:12.332Z,0
2016-08-01T01:50:12.309Z,0
2016-08-01T01:51:10.879Z,0
2016-08-01T01:52:11.538Z,0
2016-08-01T01:53:12.217Z,0
2016-08-01T01:54:12.176Z,0
2016-08-01T01:55:11.444Z,0
2016-08-01T01:56:11.414Z,0
2016-08-01T01:57:10.693Z,0
2016-08-01T01:58:12.045Z,0
2016-08-01T01:59:11.321Z,0
2016-08-01T02:00:11.991Z,0
2016-08-01T02:01:10.560Z,0
2016-08-01T02:02:11.922Z,0
2016-08-01T02:03:11.892Z,0
2016-08-01T02:04:11.853Z,0
2016-08-01T02:05:11.825Z,0
2016-08-01T02:06:11.100Z,0
2016-08-01T02:07:11.068Z,0
2016-08-01T02:08:11.737Z,0
2016-08-01T02:09:11.007Z,0
2016-08-01T02:10:11.679Z,0
2016-08-01T02:11:10.936Z,0
2016-08-01T02:12:10.909Z,0
2016-08-01T02:13:10.875Z,0
2016-08-01T02:14:10.841Z,0
2016-08-01T02:15:11.505Z,0
2016-08-01T02:16:11.477Z,0
2016-08-01T02:17:11.455Z,0
2016-08-01T02:18:10.721Z,0
2016-08-01T02:19:10.686Z,0
2016-08-01T02:20:09.275Z,0
2016-08-01T02:21:09.920Z,0
2016-08-01T02:22:10.583Z,0
2016-08-01T02:23:11.269Z,0
2016-08-01T02:24:11.219Z,0
2016-08-01T02:25:10.498Z,0
2016-08-01T02:26:10.465Z,0
2016-08-01T02:27:11.130Z,0
2016-08-01T02:28:11.097Z,0
2016-08-01T02:29:11.054Z,0
2016-08-01T02:30:11.028Z,0
2016-08-01T02:31:10.316Z,0
2016-08-01T02:32:10.974Z,0
2016-08-01T02:33:09.556Z,0
2016-08-01T02:34:09.750Z,0
2016-08-01T02:35:09.488Z,0
2016-08-01T02:36:10.845Z,0
2016-08-01T02:37:10.807Z,0
2016-08-01T02:38:09.378Z,0
2016-08-01T02:39:10.065Z,0
2016-08-01T02:40:08.622Z,0
2016-08-01T02:41:09.980Z,0
2016-08-01T02:42:10.654Z,0
2016-08-01T02:43:10.614Z,0
2016-08-01T02:44:10.581Z,0
2016-08-01T02:45:09.160Z,0
2016-08-01T02:46:09.132Z,0
2016-08-01T02:47:09.787Z,0
2016-08-01T02:48:09.770Z,0
2016-08-01T02:49:08.111Z,0
2016-08-01T02:50:10.394Z,0
2016-08-01T02:51:10.364Z,0
2016-08-01T02:52:09.638Z,0
2016-08-01T02:53:09.601Z,0
2016-08-01T02:54:09.568Z,0
2016-08-01T02:55:08.838Z,0
2016-08-01T02:56:10.200Z,0
2016-08-01T02:57:09.477Z,0
2016-08-01T02:58:08.748Z,0
2016-08-01T02:59:09.410Z,0
2016-08-01T03:00:10.078Z,0
2016-08-01T03:01:08.649Z,0
2016-08-01T03:02:09.308Z,0
2016-08-01T03:03:09.287Z,0
2016-08-01T03:05:09.913Z,0
2016-08-01T03:06:09.190Z,0
2016-08-01T03:07:07.766Z,0
2016-08-01T03:08:08.424Z,0
2016-08-01T03:09:09.098Z,0
2016-08-01T03:10:09.754Z,0
2016-08-01T03:11:09.022Z,0
2016-08-01T03:12:08.994Z,0
2016-08-01T03:13:08.962Z,0
2016-08-01T03:14:08.933Z,0
2016-08-01T03:15:08.899Z,0
2016-08-01T03:16:09.567Z,0
2016-08-01T03:17:08.838Z,0
2016-08-01T03:18:09.499Z,0
2016-08-01T03:19:09.471Z,0
2016-08-01T03:20:08.037Z,0
2016-08-01T03:21:09.421Z,0
2016-08-01T03:22:08.684Z,0
2016-08-01T03:23:09.336Z,0
2016-08-01T03:24:08.614Z,0
2016-08-01T03:25:08.575Z,0
2016-08-01T03:26:09.242Z,0
2016-08-01T03:27:08.519Z,0
2016-08-01T03:28:08.482Z,0
2016-08-01T03:29:08.449Z,0
2016-08-01T03:30:09.122Z,0
2016-08-01T03:31:08.391Z,0
2016-08-01T03:32:06.974Z,0
2016-08-01T03:33:09.019Z,0
2016-08-01T03:34:08.995Z,0
2016-08-01T03:35:08.958Z,0
2016-08-01T03:36:08.232Z,0
2016-08-01T03:37:08.193Z,0
2016-08-01T03:38:07.476Z,0
2016-08-01T03:39:08.821Z,0
2016-08-01T03:40:08.099Z,0
2016-08-01T03:41:06.673Z,0
2016-08-01T03:42:08.732Z,0
2016-08-01T03:43:08.013Z,0
2016-08-01T03:44:08.665Z,0
2016-08-01T03:45:08.632Z,0
2016-08-01T03:46:07.906Z,0
2016-08-01T03:47:08.570Z,0
2016-08-01T03:48:07.845Z,0
2016-08-01T03:49:07.811Z,0
2016-08-01T03:50:08.479Z,0
2016-08-01T03:51:08.441Z,0
2016-08-01T03:52:07.718Z,0
2016-08-01T03:53:07.690Z,0
2016-08-01T03:54:08.353Z,0
2016-08-01T03:55:08.317Z,0
2016-08-01T03:56:07.594Z,0
2016-08-01T03:57:07.566Z,0
2016-08-01T03:58:08.221Z,0
2016-08-01T03:59:08.190Z,0
2016-08-01T04:00:08.151Z,0
2016-08-01T04:01:08.128Z,5
2016-08-01T04:02:06.718Z,5
2016-08-01T04:03:08.068Z,5
2016-08-01T04:04:08.033Z,5
2016-08-01T04:05:07.997Z,5
2016-08-01T04:06:07.965Z,5
2016-08-01T04:07:07.237Z,5
2016-08-01T04:08:07.901Z,5
2016-08-01T04:09:07.187Z,5
2016-08-01T04:10:07.838Z,5
2016-08-01T04:11:07.811Z,5
2016-08-01T04:12:07.073Z,10
2016-08-01T04:13:07.045Z,10
2016-08-01T04:14:07.008Z,10
2016-08-01T04:15:06.283Z,10
2016-08-01T04:16:06.952Z,10
2016-08-01T04:17:06.218Z,10
2016-08-01T04:18:06.879Z,10
2016-08-01T04:19:06.157Z,10
2016-08-01T04:20:06.834Z,10
2016-08-01T04:21:07.488Z,10
2016-08-01T04:22:06.768Z,15
2016-08-01T04:23:06.037Z,15
2016-08-01T04:24:05.996Z,15
2016-08-01T04:25:06.663Z,15
2016-08-01T04:26:06.635Z,15
2016-08-01T04:27:05.213Z,15
2016-08-01T04:28:07.258Z,20
2016-08-01T04:29:07.236Z,20
2016-08-01T04:30:06.499Z,20
2016-08-01T04:31:07.165Z,20
2016-08-01T04:32:06.434Z,20
2016-08-01T04:33:06.410Z,25
2016-08-01T04:34:07.067Z,25
2016-08-01T04:35:06.344Z,25
2016-08-01T04:36:07.003Z,25
2016-08-01T04:37:06.275Z,30
2016-08-01T04:38:05.542Z,30
2016-08-01T04:39:06.206Z,30
2016-08-01T04:40:06.871Z,35
2016-08-01T04:41:06.852Z,35
2016-08-01T04:42:04.718Z,40
2016-08-01T04:43:06.772Z,40
2016-08-01T04:44:06.042Z,45
2016-08-01T04:45:06.713Z,45
2016-08-01T04:46:06.672Z,50
2016-08-01T04:47:06.649Z,50
2016-08-01T04:48:05.919Z,50
2016-08-01T04:49:06.579Z,55
2016-08-01T04:50:05.868Z,55
2016-08-01T04:51:06.542Z,60
2016-08-01T04:52:06.493Z,60
2016-08-01T04:53:06.454Z,65
2016-08-01T04:54:05.725Z,65
2016-08-01T04:55:04.992Z,65
2016-08-01T04:56:05.660Z,65
2016-08-01T04:57:05.632Z,65
2016-08-01T04:58:05.600Z,65
2016-08-01T04:59:06.278Z,65
2016-08-01T05:00:05.532Z,65
2016-08-01T05:01:04.800Z,70
2016-08-01T05:02:06.168Z,70
2016-08-01T05:03:06.137Z,75
2016-08-01T05:04:06.103Z,75
2016-08-01T05:05:06.065Z,80
2016-08-01T05:06:06.054Z,85
2016-08-01T05:07:05.312Z,90
2016-08-01T05:08:04.597Z,95
2016-08-01T05:09:03.862Z,95
2016-08-01T05:10:05.212Z,100
2016-08-01T05:11:05.194Z,100
2016-08-01T05:12:05.359Z,95
2016-08-01T05:13:05.813Z,100
2016-08-01T05:14:05.093Z,105
2016-08-01T05:15:05.059Z,110
2016-08-01T05:16:05.718Z,120
2016-08-01T05:17:04.997Z,125
2016-08-01T05:18:05.659Z,140
2016-08-01T05:19:05.624Z,140
2016-08-01T05:20:05.598Z,145
2016-08-01T05:21:05.573Z,155
2016-08-01T05:22:05.532Z,155
2016-08-01T05:23:04.813Z,170
2016-08-01T05:24:05.487Z,170
2016-08-01T05:25:05.438Z,185
2016-08-01T05:26:04.714Z,195
2016-08-01T05:27:05.384Z,200
2016-08-01T05:28:04.652Z,210
2016-08-01T05:29:04.624Z,205
2016-08-01T05:30:05.291Z,220
2016-08-01T05:31:04.548Z,505
2016-08-01T05:32:05.227Z,260
2016-08-01T05:33:04.491Z,260
2016-08-01T05:34:05.163Z,285
2016-08-01T05:35:03.741Z,335
2016-08-01T05:36:05.094Z,360
2016-08-01T05:37:05.072Z,305
2016-08-01T05:38:04.344Z,290
2016-08-01T05:39:04.312Z,305
2016-08-01T05:40:04.979Z,315
2016-08-01T05:41:03.553Z,385
2016-08-01T05:42:04.911Z,740
2016-08-01T05:43:04.209Z,765
2016-08-01T05:44:04.856Z,790
2016-08-01T05:45:03.427Z,800
2016-08-01T05:46:03.410Z,805
2016-08-01T05:47:04.078Z,825
2016-08-01T05:48:04.040Z,660
2016-08-01T05:49:04.029Z,735
2016-08-01T05:50:02.602Z,415
2016-08-01T05:51:03.970Z,355
2016-08-01T05:52:03.254Z,430
2016-08-01T05:53:03.911Z,450
2016-08-01T05:54:04.588Z,330
2016-08-01T05:55:03.854Z,325
2016-08-01T05:56:04.527Z,395
2016-08-01T05:57:04.493Z,320
2016-08-01T05:58:03.100Z,325
2016-08-01T05:59:04.448Z,320
2016-08-01T06:00:04.420Z,300
2016-08-01T06:01:03.715Z,285
2016-08-01T06:02:04.366Z,270
2016-08-01T06:03:04.339Z,260
2016-08-01T06:04:03.630Z,250
2016-08-01T06:05:03.590Z,245
2016-08-01T06:06:03.570Z,240
2016-08-01T06:07:03.539Z,235
2016-08-01T06:08:02.814Z,250
2016-08-01T06:09:03.483Z,220
2016-08-01T06:10:03.464Z,215
2016-08-01T06:11:03.427Z,205
2016-08-01T06:12:04.097Z,200
2016-08-01T06:13:03.377Z,190
2016-08-01T06:14:03.348Z,190
2016-08-01T06:15:02.621Z,185
2016-08-01T06:16:03.292Z,185
2016-08-01T06:17:02.605Z,185
2016-08-01T06:18:02.538Z,185
2016-08-01T06:19:03.906Z,190
2016-08-01T06:20:02.482Z,195
2016-08-01T06:21:03.850Z,195
2016-08-01T06:22:03.828Z,200
2016-08-01T06:23:03.099Z,205
2016-08-01T06:24:03.073Z,210
2016-08-01T06:25:03.048Z,210
2016-08-01T06:26:03.712Z,220
2016-08-01T06:27:03.685Z,235
2016-08-01T06:28:02.976Z,240
2016-08-01T06:29:03.635Z,255
2016-08-01T06:30:02.901Z,260
2016-08-01T06:31:02.874Z,270
2016-08-01T06:32:02.851Z,275
2016-08-01T06:33:03.515Z,280
2016-08-01T06:34:02.095Z,285
2016-08-01T06:35:03.456Z,290
2016-08-01T06:36:02.031Z,300
2016-08-01T06:37:02.002Z,300
2016-08-01T06:38:02.673Z,305
2016-08-01T06:39:02.645Z,315
2016-08-01T06:40:02.614Z,340
2016-08-01T06:41:01.894Z,335
2016-08-01T06:42:03.260Z,340
2016-08-01T06:43:02.528Z,365
2016-08-01T06:44:01.821Z,360
2016-08-01T06:45:03.172Z,380
2016-08-01T06:46:03.144Z,420
2016-08-01T06:47:03.117Z,440
2016-08-01T06:48:02.397Z,490
2016-08-01T06:49:03.057Z,1490
2016-08-01T06:50:02.329Z,1470
2016-08-01T06:51:03.004Z,1475
2016-08-01T06:52:02.270Z,1470
2016-08-01T06:53:02.943Z,1445
2016-08-01T06:54:02.233Z,1470
2016-08-01T06:55:02.195Z,1475
2016-08-01T06:56:01.476Z,1475
2016-08-01T06:57:02.846Z,1475
2016-08-01T06:58:02.116Z,1455
2016-08-01T06:59:02.782Z,1475
2016-08-01T07:00:02.074Z,1510
2016-08-01T07:01:01.343Z,1515
2016-08-01T07:02:02.711Z,1525
2016-08-01T07:03:01.996Z,1540
2016-08-01T07:04:01.967Z,1575
2016-08-01T07:05:00.566Z,1585
2016-08-01T07:06:01.929Z,1600
2016-08-01T07:07:02.599Z,1620
2016-08-01T07:08:01.883Z,1650
2016-08-01T07:09:01.858Z,1650
2016-08-01T07:10:02.527Z,1665
2016-08-01T07:11:01.814Z,1655
2016-08-01T07:12:01.800Z,1680
2016-08-01T07:13:02.474Z,1695
2016-08-01T07:14:02.451Z,1655
2016-08-01T07:15:02.429Z,1650
2016-08-01T07:16:01.038Z,1665
2016-08-01T07:17:02.389Z,1600
2016-08-01T07:18:02.372Z,1670
2016-08-01T07:19:01.656Z,1570
2016-08-01T07:20:00.716Z,1420
2016-08-01T07:21:02.311Z,1355
2016-08-01T07:22:01.599Z,1585
2016-08-01T07:23:02.271Z,1570
2016-08-01T07:24:00.876Z,1720
2016-08-01T07:25:01.541Z,1760
2016-08-01T07:26:02.216Z,1765
2016-08-01T07:27:01.503Z,1820
2016-08-01T07:28:01.496Z,1780
2016-08-01T07:29:02.166Z,1755
2016-08-01T07:30:01.453Z,1795
2016-08-01T07:31:00.741Z,1850
2016-08-01T07:32:01.423Z,1910
2016-08-01T07:33:01.394Z,1895
2016-08-01T07:34:02.077Z,1870
2016-08-01T07:36:02.047Z,1895
2016-08-01T07:37:01.334Z,1880
2016-08-01T07:38:02.004Z,1890
2016-08-01T07:39:00.613Z,1960
2016-08-01T07:40:01.973Z,1930
2016-08-01T07:41:01.962Z,1885
2016-08-01T07:42:00.538Z,1880
2016-08-01T07:43:01.226Z,1885
2016-08-01T07:44:01.909Z,1880
2016-08-01T07:45:01.887Z,1855
2016-08-01T07:46:01.568Z,1880
2016-08-01T07:47:01.376Z,1840
2016-08-01T07:48:01.839Z,1930
2016-08-01T07:49:01.829Z,1875
2016-08-01T07:51:00.413Z,1885
2016-08-01T07:52:00.386Z,1870
2016-08-01T07:53:01.069Z,1700
2016-08-01T07:54:01.762Z,1375
2016-08-01T07:55:01.039Z,1210
2016-08-01T07:56:01.014Z,1145
2016-08-01T07:57:00.313Z,1080
2016-08-01T07:58:01.692Z,1110
2016-08-01T07:59:01.670Z,1110
2016-08-01T08:00:00.964Z,1095
2016-08-01T08:01:00.951Z,1040
2016-08-01T08:02:01.629Z,1035
2016-08-01T08:03:00.920Z,885
2016-08-01T08:04:00.211Z,1045
2016-08-01T08:06:01.576Z,1090
2016-08-01T08:07:00.864Z,1170
2016-08-01T08:08:00.856Z,1185
2016-08-01T08:09:00.831Z,1290
2016-08-01T08:10:00.836Z,1755
2016-08-01T08:11:00.105Z,1975
2016-08-01T08:12:01.477Z,1785
2016-08-01T08:13:00.779Z,1750
2016-08-01T08:14:00.061Z,1290
2016-08-01T08:15:01.435Z,1375
2016-08-01T08:16:01.424Z,1940
2016-08-01T08:17:00.716Z,2195
2016-08-01T08:18:00.694Z,2240
2016-08-01T08:19:00.687Z,2110
2016-08-01T08:19:59.985Z,2175
2016-08-01T08:21:01.348Z,2205
2016-08-01T08:22:01.336Z,2185
2016-08-01T08:23:01.334Z,2235
2016-08-01T08:24:01.317Z,2325
2016-08-01T08:25:00.605Z,2360
2016-08-01T08:26:00.590Z,2355
2016-08-01T08:27:01.281Z,2300
2016-08-01T08:28:01.270Z,2215
2016-08-01T08:29:01.239Z,2085
2016-08-01T08:30:00.533Z,1935
2016-08-01T08:31:00.518Z,2030
2016-08-01T08:32:00.516Z,1945
2016-08-01T08:33:00.525Z,2035
2016-08-01T08:34:00.487Z,2105
2016-08-01T08:35:01.173Z,2120
2016-08-01T08:36:00.458Z,2250
2016-08-01T08:37:00.447Z,2405
2016-08-01T08:38:01.128Z,2185
2016-08-01T08:39:00.416Z,2210
2016-08-01T08:40:01.103Z,755
2016-08-01T08:41:00.396Z,1495
2016-08-01T08:42:00.384Z,2415
2016-08-01T08:43:00.362Z,2410
2016-08-01T08:44:01.053Z,2555
2016-08-01T08:45:01.040Z,2430
2016-08-01T08:46:01.027Z,2080
2016-08-01T08:47:01.030Z,565
2016-08-01T08:47:59.610Z,1685
2016-08-01T08:49:01.004Z,660
2016-08-01T08:50:00.287Z,555
2016-08-01T08:51:00.266Z,620
2016-08-01T08:51:59.610Z,480
2016-08-01T08:53:00.943Z,430
2016-08-01T08:53:59.770Z,395
2016-08-01T08:55:00.231Z,390
2016-08-01T08:56:00.886Z,370
2016-08-01T08:56:59.497Z,350
2016-08-01T08:58:00.168Z,345
2016-08-01T08:59:00.842Z,330
2016-08-01T09:00:00.144Z,340
2016-08-01T09:01:00.115Z,340
2016-08-01T09:02:00.794Z,340
2016-08-01T09:03:00.797Z,320
2016-08-01T09:04:00.058Z,330
2016-08-01T09:05:00.735Z,335
2016-08-01T09:06:00.019Z,370
2016-08-01T09:07:00.004Z,425
2016-08-01T09:07:59.989Z,505
2016-08-01T09:09:00.651Z,2710
2016-08-01T09:09:59.949Z,2855
2016-08-01T09:10:59.276Z,2715
2016-08-01T09:11:59.220Z,2750
2016-08-01T09:12:59.873Z,2800
2016-08-01T09:13:59.854Z,2775
2016-08-01T09:14:59.139Z,2800
2016-08-01T09:15:59.811Z,2680
2016-08-01T09:17:00.491Z,2430
2016-08-01T09:18:00.470Z,2685
2016-08-01T09:19:00.454Z,2645
2016-08-01T09:20:00.431Z,2775
2016-08-01T09:21:00.415Z,2695
2016-08-01T09:22:00.397Z,2745
2016-08-01T09:22:59.680Z,2900
2016-08-01T09:23:59.673Z,2935
2016-08-01T09:25:00.347Z,2785
2016-08-01T09:25:58.234Z,2745
2016-08-01T09:27:00.304Z,2680
2016-08-01T09:27:59.598Z,2710
2016-08-01T09:28:59.584Z,2790
2016-08-01T09:29:58.868Z,2705
2016-08-01T09:31:00.254Z,2760
2016-08-01T09:31:59.528Z,2875
2016-08-01T09:32:59.521Z,2780
2016-08-01T09:33:59.508Z,2935
2016-08-01T09:35:00.187Z,3015
2016-08-01T09:35:59.478Z,2495
2016-08-01T09:37:00.160Z,3020
2016-08-01T09:38:00.142Z,2660
2016-08-01T09:38:59.438Z,2455
2016-08-01T09:40:00.128Z,545
2016-08-01T09:41:00.112Z,500
2016-08-01T09:42:00.112Z,500
2016-08-01T09:42:59.381Z,535
2016-08-01T09:43:59.372Z,770
2016-08-01T09:44:58.662Z,3370
2016-08-01T09:46:00.037Z,3495
2016-08-01T09:47:00.022Z,3535
2016-08-01T09:47:59.314Z,1070
2016-08-01T09:48:59.993Z,2405
2016-08-01T09:49:58.596Z,2425
2016-08-01T09:50:59.273Z,1395
2016-08-01T09:51:58.563Z,975
2016-08-01T09:52:59.236Z,865
2016-08-01T09:53:59.918Z,865
2016-08-01T09:54:59.897Z,950
2016-08-01T09:55:59.888Z,1265
2016-08-01T09:56:59.171Z,1175
2016-08-01T09:57:59.152Z,615
2016-08-01T09:58:59.154Z,535
2016-08-01T09:59:59.130Z,525
2016-08-01T10:00:58.400Z,505
2016-08-01T10:01:59.091Z,475
2016-08-01T10:02:59.767Z,425
2016-08-01T10:03:59.754Z,395
2016-08-01T10:04:59.041Z,375
2016-08-01T10:05:59.710Z,370
2016-08-01T10:06:59.693Z,365
2016-08-01T10:07:58.973Z,355
2016-08-01T10:08:57.558Z,350
2016-08-01T10:09:59.635Z,385
2016-08-01T10:10:59.611Z,415
2016-08-01T10:11:59.596Z,575
2016-08-01T10:12:58.878Z,1495
2016-08-01T10:13:58.155Z,715
2016-08-01T10:14:58.149Z,740
2016-08-01T10:15:58.820Z,770
2016-08-01T10:16:59.492Z,685
2016-08-01T10:17:58.767Z,710
2016-08-01T10:18:59.440Z,725
2016-08-01T10:19:58.730Z,680
2016-08-01T10:20:59.414Z,675
2016-08-01T10:21:57.990Z,640
2016-08-01T10:22:58.670Z,695
2016-08-01T10:23:59.344Z,860
2016-08-01T10:24:59.310Z,725
2016-08-01T10:25:57.908Z,745
2016-08-01T10:26:59.284Z,1410
2016-08-01T10:27:58.569Z,1195
2016-08-01T10:28:58.531Z,1170
2016-08-01T10:29:57.815Z,1375
2016-08-01T10:30:58.492Z,1230
2016-08-01T10:31:58.470Z,1285
2016-08-01T10:32:59.152Z,1215
2016-08-01T10:33:57.731Z,1525
2016-08-01T10:34:58.409Z,1730
2016-08-01T10:35:59.085Z,1835
2016-08-01T10:36:58.372Z,2030
2016-08-01T10:37:58.347Z,2715
2016-08-01T10:38:58.330Z,3105
2016-08-01T10:39:58.322Z,3175
2016-08-01T10:40:58.992Z,3255
2016-08-01T10:41:58.976Z,3330
2016-08-01T10:42:58.275Z,2295
2016-08-01T10:43:58.248Z,3215
2016-08-01T10:44:58.922Z,3210
2016-08-01T10:45:58.215Z,3255
2016-08-01T10:46:58.911Z,3235
2016-08-01T10:47:58.173Z,3235
2016-08-01T10:48:58.871Z,3470
2016-08-01T10:49:58.851Z,3855
2016-08-01T10:50:58.826Z,3800
2016-08-01T10:51:58.124Z,3960
2016-08-01T10:52:58.808Z,4145
2016-08-01T10:53:58.787Z,4165
2016-08-01T10:54:58.794Z,4265
2016-08-01T10:55:58.069Z,4110
2016-08-01T10:56:58.046Z,3720
2016-08-01T10:57:58.745Z,3680
2016-08-01T10:58:56.630Z,3650
2016-08-01T10:59:58.009Z,3425
2016-08-01T11:00:57.310Z,2830
2016-08-01T11:01:57.983Z,2685
2016-08-01T11:02:57.968Z,2850
2016-08-01T11:03:58.652Z,2720
2016-08-01T11:04:58.631Z,1510
2016-08-01T11:05:58.620Z,685
2016-08-01T11:06:58.615Z,625
2016-08-01T11:07:57.203Z,500
2016-08-01T11:08:57.896Z,640
2016-08-01T11:09:58.567Z,610
2016-08-01T11:10:57.854Z,580
2016-08-01T11:11:57.840Z,555
2016-08-01T11:12:57.823Z,580
2016-08-01T11:13:58.508Z,570
2016-08-01T11:14:58.487Z,420
2016-08-01T11:15:57.773Z,615
2016-08-01T11:16:56.363Z,615
2016-08-01T11:17:57.738Z,1485
2016-08-01T11:18:58.414Z,2715
2016-08-01T11:19:58.397Z,2665
2016-08-01T11:20:58.398Z,1465
2016-08-01T11:21:58.363Z,475
2016-08-01T11:22:58.349Z,445
2016-08-01T11:23:56.939Z,435
2016-08-01T11:24:57.613Z,425
2016-08-01T11:25:57.604Z,405
2016-08-01T11:26:58.272Z,385
2016-08-01T11:27:58.264Z,375
2016-08-01T11:28:57.559Z,360
2016-08-01T11:29:58.210Z,350
2016-08-01T11:30:58.198Z,355
2016-08-01T11:31:58.184Z,360
2016-08-01T11:32:56.070Z,340
2016-08-01T11:33:58.149Z,340
2016-08-01T11:34:57.440Z,365
2016-08-01T11:35:58.099Z,390
2016-08-01T11:36:58.081Z,400
2016-08-01T11:37:58.064Z,440
2016-08-01T11:38:57.333Z,440
2016-08-01T11:39:57.322Z,420
2016-08-01T11:40:57.292Z,375
2016-08-01T11:41:57.974Z,360
2016-08-01T11:42:56.567Z,340
2016-08-01T11:43:57.226Z,380
2016-08-01T11:44:57.902Z,375
2016-08-01T11:45:57.188Z,365
2016-08-01T11:46:56.468Z,395
2016-08-01T11:47:57.835Z,475
2016-08-01T11:48:57.814Z,540
2016-08-01T11:49:57.117Z,585
2016-08-01T11:51:55.659Z,615
2016-08-01T11:52:57.731Z,600
2016-08-01T11:53:57.000Z,580
2016-08-01T11:54:57.678Z,565
2016-08-01T11:55:57.652Z,540
2016-08-01T11:56:56.936Z,535
2016-08-01T11:57:57.607Z,535
2016-08-01T11:58:57.585Z,550
2016-08-01T11:59:57.559Z,555
2016-08-01T12:00:56.838Z,545
2016-08-01T12:01:56.812Z,520
2016-08-01T12:02:57.484Z,500
2016-08-01T12:03:56.777Z,485
2016-08-01T12:04:56.754Z,475
2016-08-01T12:06:56.714Z,465
2016-08-01T12:07:57.363Z,455
2016-08-01T12:08:57.354Z,460
2016-08-01T12:09:57.330Z,490
2016-08-01T12:10:56.605Z,525
2016-08-01T12:11:57.287Z,490
2016-08-01T12:12:57.253Z,455
2016-08-01T12:13:57.230Z,470
2016-08-01T12:14:57.207Z,455
2016-08-01T12:15:56.686Z,405
2016-08-01T12:16:56.464Z,405
2016-08-01T12:17:55.737Z,390
2016-08-01T12:18:56.407Z,355
2016-08-01T12:19:56.391Z,340
2016-08-01T12:20:56.360Z,335
2016-08-01T12:21:57.029Z,315
2016-08-01T12:22:56.334Z,300
2016-08-01T12:23:56.988Z,285
2016-08-01T12:24:56.268Z,275
2016-08-01T12:25:56.935Z,260
2016-08-01T12:26:55.519Z,260
2016-08-01T12:27:55.507Z,255
2016-08-01T12:28:56.862Z,255
2016-08-01T12:29:56.133Z,240
2016-08-01T12:30:56.116Z,230
2016-08-01T12:31:56.086Z,220
2016-08-01T12:32:55.366Z,220
2016-08-01T12:33:56.039Z,245
2016-08-01T12:34:56.012Z,245
2016-08-01T12:35:55.978Z,255
2016-08-01T12:36:55.959Z,265
2016-08-01T12:37:55.937Z,245
2016-08-01T12:38:55.931Z,240
2016-08-01T12:39:56.577Z,250
2016-08-01T12:40:55.861Z,275
2016-08-01T12:41:56.528Z,255
2016-08-01T12:42:55.123Z,255
2016-08-01T12:43:56.477Z,235
2016-08-01T12:44:55.760Z,225
2016-08-01T12:45:55.722Z,220
2016-08-01T12:46:56.399Z,220
2016-08-01T12:47:55.681Z,215
2016-08-01T12:48:56.346Z,215
2016-08-01T12:49:55.620Z,210
2016-08-01T12:50:56.290Z,215
2016-08-01T12:51:55.567Z,210
2016-08-01T12:52:55.539Z,205
2016-08-01T12:53:55.522Z,210
2016-08-01T12:54:55.490Z,205
2016-08-01T12:55:54.776Z,205
2016-08-01T12:56:56.133Z,205
2016-08-01T12:57:54.711Z,205
2016-08-01T12:58:56.079Z,205
2016-08-01T12:59:55.362Z,205
2016-08-01T13:00:54.636Z,205
2016-08-01T13:01:54.614Z,205
2016-08-01T13:02:55.278Z,205
2016-08-01T13:03:55.257Z,205
2016-08-01T13:04:55.216Z,205
2016-08-01T13:05:55.204Z,200
2016-08-01T13:06:55.182Z,205
2016-08-01T13:07:54.451Z,205
2016-08-01T13:08:55.124Z,205
2016-08-01T13:09:55.807Z,200
2016-08-01T13:10:55.772Z,205
2016-08-01T13:11:54.351Z,200
2016-08-01T13:12:55.012Z,200
2016-08-01T13:13:55.686Z,200
2016-08-01T13:14:54.261Z,205
2016-08-01T13:15:54.934Z,200
2016-08-01T13:16:54.210Z,200
2016-08-01T13:17:54.885Z,205
2016-08-01T13:18:54.858Z,210
2016-08-01T13:19:54.836Z,215
2016-08-01T13:20:54.800Z,220
2016-08-01T13:21:54.773Z,220
2016-08-01T13:22:54.764Z,220
2016-08-01T13:23:54.035Z,210
2016-08-01T13:24:54.697Z,200
2016-08-01T13:25:54.678Z,205
2016-08-01T13:26:54.644Z,200
2016-08-01T13:27:55.309Z,200
2016-08-01T13:28:55.294Z,200
2016-08-01T13:29:55.258Z,200
2016-08-01T13:30:54.534Z,215
2016-08-01T13:31:54.506Z,225
2016-08-01T13:32:55.183Z,220
2016-08-01T13:33:53.762Z,205
2016-08-01T13:34:55.134Z,200
2016-08-01T13:35:53.704Z,200
2016-08-01T13:36:55.067Z,200
2016-08-01T13:37:55.043Z,200
2016-08-01T13:38:53.626Z,195
2016-08-01T13:39:55.011Z,200
2016-08-01T13:40:54.979Z,200
2016-08-01T13:41:54.240Z,195
2016-08-01T13:42:54.235Z,205
2016-08-01T13:43:54.196Z,205
2016-08-01T13:44:53.465Z,190
2016-08-01T13:45:54.138Z,180
2016-08-01T13:46:54.801Z,180
2016-08-01T13:47:54.773Z,200
2016-08-01T13:48:53.364Z,175
2016-08-01T13:49:54.031Z,195
2016-08-01T13:50:54.009Z,220
2016-08-01T13:51:53.276Z,245
2016-08-01T13:52:54.659Z,265
2016-08-01T13:53:54.620Z,285
2016-08-01T13:54:54.587Z,290
2016-08-01T13:55:53.873Z,280
2016-08-01T13:56:51.753Z,290
2016-08-01T13:57:54.525Z,295
2016-08-01T13:58:54.497Z,270
2016-08-01T13:59:54.467Z,275
2016-08-01T14:00:52.352Z,295
2016-08-01T14:01:53.738Z,290
2016-08-01T14:02:54.394Z,300
2016-08-01T14:03:54.377Z,315